Time;durP1;ratioP1;P1;durP2;ratioP2;P2;SDS_P1;SDS_P2;PMS_P1;PMS_P2;Temp;Humidity;BMP_temperature;BMP_pressure;BME280_temperature;BME280_humidity;BME280_pressure;Samples;Min_cycle;Max_cycle;Signal;HPM_P1;HPM_P2
2022/05/02 00:02:21;;;;;;;14.02;9.23;;;;;;;9.32;74.74;102288.13;5045774;28;20098;-69
2022/05/02 00:04:47;;;;;;;12.80;9.43;;;;;;;9.29;74.72;102289.88;5039982;28;20042;-68
2022/05/02 00:07:12;;;;;;;13.60;9.48;;;;;;;9.21;74.91;102284.66;5026463;28;20544;-67
2022/05/02 00:09:38;;;;;;;11.00;8.50;;;;;;;9.20;75.04;102288.19;5025347;28;20025;-67
2022/05/02 00:12:03;;;;;;;13.60;9.43;;;;;;;9.11;75.55;102291.72;5024176;28;20030;-68
2022/05/02 00:14:29;;;;;;;11.45;9.45;;;;;;;9.16;75.45;102291.72;5026273;28;20033;-66
2022/05/02 00:16:54;;;;;;;10.73;8.57;;;;;;;9.19;75.12;102291.69;5026096;28;20112;-68
2022/05/02 00:19:19;;;;;;;13.43;9.38;;;;;;;9.11;75.54;102294.34;5025842;28;20056;-67
2022/05/02 00:21:45;;;;;;;13.82;9.65;;;;;;;9.08;75.86;102290.00;5026193;28;20116;-68
2022/05/02 00:24:10;;;;;;;13.63;9.95;;;;;;;9.03;76.13;102286.50;5027319;28;20414;-67
2022/05/02 00:26:35;;;;;;;14.95;9.93;;;;;;;9.08;75.81;102290.00;5027331;28;20034;-68
2022/05/02 00:29:01;;;;;;;14.30;9.98;;;;;;;9.02;76.21;102284.75;5025976;28;20083;-68
2022/05/02 00:31:26;;;;;;;13.23;9.85;;;;;;;9.06;76.00;102285.63;5025722;28;20033;-67
2022/05/02 00:33:51;;;;;;;13.48;9.55;;;;;;;9.07;75.75;102285.63;5025814;28;20021;-68
2022/05/02 00:36:17;;;;;;;13.05;9.45;;;;;;;9.10;75.77;102282.94;5026999;28;20380;-68
2022/05/02 00:38:42;;;;;;;14.27;10.05;;;;;;;9.05;75.95;102276.84;5023006;28;20471;-68
2022/05/02 00:41:08;;;;;;;17.42;10.68;;;;;;;8.98;76.18;102267.25;5025350;28;20036;-67
2022/05/02 00:43:33;;;;;;;16.25;10.07;;;;;;;8.95;76.40;102267.25;5023825;28;20029;-67
2022/05/02 00:45:59;;;;;;;15.07;10.50;;;;;;;8.92;76.23;102272.53;5024974;28;20524;-68
2022/05/02 00:48:25;;;;;;;14.88;10.38;;;;;;;8.98;76.00;102269.88;5025656;28;20025;-68
2022/05/02 00:50:50;;;;;;;13.38;10.23;;;;;;;8.91;76.21;102263.75;5025691;28;20044;-67
2022/05/02 00:53:19;;;;;;;12.95;9.85;;;;;;;8.87;76.15;102266.41;5026609;28;20078;-67
2022/05/02 00:55:45;;;;;;;12.48;10.75;;;;;;;8.88;76.14;102265.53;5024855;28;20365;-68
2022/05/02 00:58:10;;;;;;;11.88;9.10;;;;;;;8.94;75.94;102261.13;5025960;28;20040;-69
2022/05/02 01:00:37;;;;;;;14.07;9.57;;;;;;;8.88;76.12;102258.50;5026066;28;20129;-66
2022/05/02 01:03:04;;;;;;;17.17;10.55;;;;;;;8.86;76.26;102257.66;5024465;28;20038;-68
2022/05/02 01:05:29;;;;;;;12.70;9.82;;;;;;;8.86;76.18;102257.66;5025068;28;20026;-67
2022/05/02 01:07:55;;;;;;;14.50;10.48;;;;;;;8.79;76.17;102256.78;5026282;28;20383;-68
2022/05/02 01:10:20;;;;;;;15.30;9.65;;;;;;;8.80;76.34;102253.31;5025314;28;20034;-67
2022/05/02 01:12:47;;;;;;;16.02;10.95;;;;;;;8.74;76.59;102253.31;5026581;28;20079;-67
2022/05/02 01:15:14;;;;;;;16.48;10.38;;;;;;;8.69;76.71;102255.06;5037065;28;20029;-68
2022/05/02 01:17:40;;;;;;;13.20;10.30;;;;;;;8.64;76.89;102256.88;5045862;28;20021;-68
2022/05/02 01:20:07;;;;;;;15.45;10.77;;;;;;;8.62;77.10;102261.22;5045459;28;20558;-67
2022/05/02 01:22:32;;;;;;;17.35;11.15;;;;;;;8.64;77.07;102254.22;5045887;28;20033;-66
2022/05/02 01:24:57;;;;;;;14.38;10.13;;;;;;;8.58;77.10;102258.63;5046007;28;20431;-68
2022/05/02 01:27:23;;;;;;;15.75;10.85;;;;;;;8.61;76.99;102256.88;5030900;28;20472;-67
2022/05/02 01:29:48;;;;;;;16.25;11.13;;;;;;;8.64;76.87;102257.72;5026427;28;20052;-67
2022/05/02 01:32:15;;;;;;;16.52;10.23;;;;;;;8.59;77.21;102247.25;5025033;28;20069;-69
2022/05/02 01:34:41;;;;;;;13.15;10.45;;;;;;;8.62;77.05;102250.72;5025663;28;20446;-68
2022/05/02 01:37:07;;;;;;;15.68;10.68;;;;;;;8.53;77.22;102249.84;5025253;28;20056;-68
2022/05/02 01:39:32;;;;;;;16.90;11.38;;;;;;;8.49;77.41;102255.97;5026469;28;20029;-68
2022/05/02 01:42:02;;;;;;;14.98;12.07;;;;;;;8.47;77.31;102249.88;5029460;28;20029;-68
2022/05/02 01:44:28;;;;;;;14.85;10.60;;;;;;;8.52;77.44;102253.34;5027245;28;20033;-68
2022/05/02 01:46:53;;;;;;;14.48;11.00;;;;;;;8.45;77.72;102247.25;5028442;28;20060;-67
2022/05/02 01:49:19;;;;;;;13.98;10.85;;;;;;;8.43;77.80;102248.97;5027699;28;20029;-68
2022/05/02 01:51:44;;;;;;;15.63;11.00;;;;;;;8.38;78.11;102242.88;5027831;28;20083;-68
2022/05/02 01:54:10;;;;;;;19.98;11.90;;;;;;;8.33;78.27;102240.25;5029072;28;20040;-67
2022/05/02 01:56:35;;;;;;;16.40;11.07;;;;;;;8.34;78.16;102236.75;5028111;28;20033;-67
2022/05/02 01:59:02;;;;;;;15.95;11.27;;;;;;;8.41;77.89;102242.00;5027398;28;20033;-68
2022/05/02 02:01:27;;;;;;;18.92;11.73;;;;;;;8.37;78.01;102248.13;5027462;28;20055;-67
2022/05/02 02:03:53;;;;;;;17.52;11.15;;;;;;;8.32;78.24;102242.88;5028847;28;20276;-67
2022/05/02 02:06:18;;;;;;;14.57;11.35;;;;;;;8.27;78.17;102242.88;5029486;28;20408;-68
2022/05/02 02:08:43;;;;;;;21.60;11.80;;;;;;;8.30;78.25;102234.13;5027569;28;20050;-67
2022/05/02 02:11:10;;;;;;;16.27;11.98;;;;;;;8.25;78.31;102233.28;5027314;28;20468;-67
2022/05/02 02:13:37;;;;;;;19.00;11.90;;;;;;;8.26;78.40;102232.38;5028697;28;20112;-66
2022/05/02 02:16:06;;;;;;;15.35;11.77;;;;;;;8.26;78.45;102229.75;5028658;28;20039;-66
2022/05/02 02:18:32;;;;;;;17.95;11.57;;;;;;;8.20;78.61;102228.03;5030145;28;20013;-68
2022/05/02 02:20:57;;;;;;;18.73;12.60;;;;;;;8.22;78.54;102226.28;5028360;28;20518;-67
2022/05/02 02:23:23;;;;;;;17.67;12.45;;;;;;;8.19;78.68;102226.28;5030056;28;20025;-67
2022/05/02 02:25:48;;;;;;;17.50;11.75;;;;;;;8.15;78.80;102228.03;5029208;28;20030;-67
2022/05/02 02:28:15;;;;;;;20.42;13.52;;;;;;;8.07;79.10;102225.41;5028541;28;20040;-68
2022/05/02 02:30:43;;;;;;;18.42;12.18;;;;;;;8.04;79.23;102229.81;5035673;28;20341;-67
2022/05/02 02:33:08;;;;;;;21.08;13.45;;;;;;;7.99;79.29;102228.91;5027388;28;20134;-66
2022/05/02 02:35:34;;;;;;;16.70;12.82;;;;;;;8.00;79.33;102233.31;5026517;28;20018;-68
2022/05/02 02:38:00;;;;;;;16.23;12.05;;;;;;;7.96;79.45;102227.19;5043717;28;20025;-68
2022/05/02 02:40:25;;;;;;;21.25;12.10;;;;;;;8.02;79.05;102229.81;5038322;28;20075;-67
2022/05/02 02:42:50;;;;;;;20.20;12.68;;;;;;;7.97;79.55;102232.44;5027858;28;20068;-66
2022/05/02 02:45:16;;;;;;;20.55;13.05;;;;;;;7.97;79.57;102234.16;5027836;28;20033;-68
2022/05/02 02:47:42;;;;;;;20.55;13.65;;;;;;;7.89;80.10;102221.03;5027490;28;20083;-66
2022/05/02 02:50:08;;;;;;;19.38;12.40;;;;;;;7.87;80.01;102221.91;5025851;28;20030;-67
2022/05/02 02:52:34;;;;;;;18.85;13.32;;;;;;;7.87;79.92;102228.06;5026627;28;20546;-67
2022/05/02 02:54:59;;;;;;;20.27;13.57;;;;;;;7.93;79.68;102221.91;5026144;28;20391;-67
2022/05/02 02:57:24;;;;;;;20.08;12.45;;;;;;;7.90;79.69;102220.19;5028046;28;20033;-66
2022/05/02 02:59:50;;;;;;;20.73;13.60;;;;;;;7.86;79.89;102221.06;5027174;28;20053;-68
2022/05/02 03:02:15;;;;;;;19.70;12.98;;;;;;;7.80;80.36;102215.81;5040500;28;20045;-67
2022/05/02 03:07:26;;;;;;;16.20;12.23;;;;;;;7.80;80.06;102216.66;5045539;28;20044;-67
2022/05/02 03:09:52;;;;;;;17.73;12.40;;;;;;;7.83;80.09;102205.31;5047572;28;20057;-66
2022/05/02 03:12:17;;;;;;;16.52;11.95;;;;;;;7.77;79.82;102211.41;5048065;28;20102;-68
2022/05/02 03:14:43;;;;;;;19.50;13.27;;;;;;;7.75;80.43;102207.06;5030670;28;20048;-67
2022/05/02 03:17:08;;;;;;;18.25;11.80;;;;;;;7.74;79.98;102211.44;5025642;28;20375;-67
2022/05/02 03:19:33;;;;;;;16.77;12.75;;;;;;;7.73;80.28;102212.31;5025582;28;20029;-66
2022/05/02 03:21:59;;;;;;;20.52;12.55;;;;;;;7.73;80.15;102208.81;5027563;28;20025;-67
2022/05/02 03:24:24;;;;;;;15.88;11.57;;;;;;;7.76;79.86;102208.78;5026368;28;20041;-67
2022/05/02 03:26:49;;;;;;;14.15;10.93;;;;;;;7.70;79.86;102210.56;5027777;28;20021;-67
2022/05/02 03:29:14;;;;;;;21.55;13.75;;;;;;;7.59;80.45;102201.81;5026639;28;20048;-68
2022/05/02 03:31:40;;;;;;;22.05;12.18;;;;;;;7.63;80.17;102206.19;5024866;28;20124;-67
2022/05/02 03:34:05;;;;;;;20.08;13.35;;;;;;;7.63;80.42;102205.31;5025226;28;20033;-68
2022/05/02 03:36:30;;;;;;;17.63;12.70;;;;;;;7.60;80.30;102200.94;5027127;28;20009;-68
2022/05/02 03:38:56;;;;;;;19.38;13.30;;;;;;;7.54;80.50;102199.19;5027443;28;20022;-67
2022/05/02 03:41:21;;;;;;;20.55;14.82;;;;;;;7.52;80.64;102207.91;5026300;28;20041;-67
2022/05/02 03:43:46;;;;;;;15.30;12.25;;;;;;;7.50;80.91;102200.06;5027300;28;20065;-67
2022/05/02 03:46:12;;;;;;;19.17;12.80;;;;;;;7.55;80.34;102200.94;5025474;28;20026;-68
2022/05/02 03:48:37;;;;;;;18.20;13.57;;;;;;;7.58;80.75;102200.94;5026850;28;20025;-67
2022/05/02 03:51:02;;;;;;;20.23;13.68;;;;;;;7.64;80.54;102199.16;5026914;28;20037;-68
2022/05/02 03:53:28;;;;;;;21.10;14.10;;;;;;;7.62;80.74;102200.94;5025093;28;20040;-67
2022/05/02 03:55:53;;;;;;;22.85;13.88;;;;;;;7.55;80.77;102206.19;5026285;28;20033;-68
2022/05/02 03:58:19;;;;;;;19.90;13.00;;;;;;;7.53;80.78;102204.44;5026302;28;20285;-68
2022/05/02 04:00:44;;;;;;;18.48;12.90;;;;;;;7.55;80.89;102200.94;5025132;28;20033;-67
2022/05/02 04:03:10;;;;;;;18.60;13.65;;;;;;;7.46;81.16;102206.16;5025014;28;20606;-69
2022/05/02 04:05:35;;;;;;;20.05;13.75;;;;;;;7.43;81.44;102201.78;5008202;28;20087;-67
2022/05/02 04:08:00;;;;;;;20.95;13.52;;;;;;;7.52;81.20;102206.16;5026587;28;20021;-67
2022/05/02 04:10:26;;;;;;;23.05;14.18;;;;;;;7.54;81.29;102207.06;5025506;28;20528;-67
2022/05/02 04:12:51;;;;;;;22.13;14.55;;;;;;;7.50;81.63;102201.81;5025473;28;20018;-67
2022/05/02 04:15:17;;;;;;;20.73;12.93;;;;;;;7.52;81.24;102207.91;5035028;28;20029;-68
2022/05/02 04:17:43;;;;;;;22.40;14.15;;;;;;;7.46;81.63;102206.16;5031665;28;20017;-68
2022/05/02 04:20:08;;;;;;;20.35;13.63;;;;;;;7.41;81.92;102210.53;5025450;28;20403;-70
2022/05/02 04:22:34;;;;;;;20.35;14.07;;;;;;;7.42;81.83;102210.53;5025354;28;20029;-67
2022/05/02 04:25:00;;;;;;;23.33;15.45;;;;;;;7.42;81.95;102217.53;5025873;28;20112;-67
2022/05/02 04:27:25;;;;;;;19.67;12.48;;;;;;;7.44;81.89;102221.88;5026015;28;20108;-67
2022/05/02 04:29:50;;;;;;;21.48;13.88;;;;;;;7.46;81.86;102227.13;5025900;28;20018;-67
2022/05/02 04:32:16;;;;;;;20.77;13.43;;;;;;;7.52;81.71;102223.66;5025847;28;20048;-67
2022/05/02 04:34:41;;;;;;;18.13;12.18;;;;;;;7.54;81.63;102225.41;5026038;28;20029;-66
2022/05/02 04:37:10;;;;;;;24.30;13.52;;;;;;;7.57;81.48;102225.44;5025705;28;20036;-68
2022/05/02 04:39:35;;;;;;;19.58;13.43;;;;;;;7.63;81.58;102227.19;5026176;28;20391;-68
2022/05/02 04:42:01;;;;;;;25.23;16.05;;;;;;;7.53;81.98;102228.88;5028170;28;20037;-68
2022/05/02 04:44:26;;;;;;;22.75;16.00;;;;;;;7.55;81.87;102227.16;5031912;28;20079;-67
2022/05/02 04:46:51;;;;;;;22.10;15.25;;;;;;;7.59;81.91;102228.06;5025212;28;20140;-67
2022/05/02 04:49:17;;;;;;;24.70;16.15;;;;;;;7.59;82.00;102222.81;5027223;28;20112;-67
2022/05/02 04:51:42;;;;;;;21.85;15.05;;;;;;;7.70;81.83;102220.16;5028880;28;20016;-67
2022/05/02 04:54:07;;;;;;;20.90;13.88;;;;;;;7.75;81.62;102220.16;5045916;28;20029;-67
2022/05/02 04:56:33;;;;;;;24.15;14.77;;;;;;;7.71;81.41;102222.78;5044331;28;20121;-67
2022/05/02 04:58:58;;;;;;;23.85;13.70;;;;;;;7.76;81.38;102221.91;5045406;28;20056;-68
2022/05/02 05:01:24;;;;;;;19.05;13.38;;;;;;;7.80;81.30;102221.06;5031592;28;20029;-68
2022/05/02 05:03:49;;;;;;;21.98;14.75;;;;;;;7.79;80.79;102225.44;5025143;28;20032;-68
2022/05/02 05:06:15;;;;;;;23.27;16.13;;;;;;;7.79;80.89;102222.81;5024454;28;20026;-67
2022/05/02 05:08:40;;;;;;;23.88;14.65;;;;;;;7.88;80.84;102219.28;5024406;28;20029;-68
2022/05/02 05:11:32;;;;;;;27.67;14.20;;;;;;;7.96;80.63;102224.56;5025267;28;20040;-68
2022/05/02 05:17:17;;;;;;;18.17;13.30;;;;;;;8.03;80.00;102223.66;5048149;28;20515;-67
2022/05/02 05:20:08;;;;;;;22.27;14.77;;;;;;;8.06;80.20;102222.78;5025235;28;20022;-66
2022/05/02 05:22:53;;;;;;;19.02;12.95;;;;;;;8.20;80.08;102223.66;5008608;28;20080;-67
2022/05/02 05:25:58;;;;;;;18.75;12.50;;;;;;;8.28;79.74;102222.75;5009219;28;20034;-69
2022/05/02 05:28:36;;;;;;;18.67;13.35;;;;;;;8.28;79.61;102220.13;5009079;28;20095;-68
2022/05/02 05:31:15;;;;;;;18.67;12.02;;;;;;;8.33;79.40;102227.13;5026395;28;20039;-68
2022/05/02 05:33:53;;;;;;;18.67;13.15;;;;;;;8.41;79.23;102218.34;5028919;28;20079;-67
2022/05/02 05:36:35;;;;;;;18.83;13.13;;;;;;;8.48;79.10;102225.34;5029774;28;20475;-68
2022/05/02 05:39:06;;;;;;;18.70;12.45;;;;;;;8.66;78.77;102223.56;5028048;28;20113;-68
2022/05/02 05:41:37;;;;;;;20.60;12.98;;;;;;;8.66;78.71;102224.44;5028387;28;20045;-68
2022/05/02 05:44:44;;;;;;;19.60;13.23;;;;;;;8.70;78.34;102218.28;5029189;28;20022;-68
2022/05/02 05:47:17;;;;;;;20.10;13.30;;;;;;;8.75;77.86;102223.53;4988339;28;20030;-68
2022/05/02 05:50:03;;;;;;;15.27;12.27;;;;;;;8.92;77.60;102230.47;5025640;28;20064;-68
2022/05/02 05:52:29;;;;;;;16.42;12.00;;;;;;;8.97;77.47;102231.31;5029120;28;20033;-67
2022/05/02 05:55:05;;;;;;;19.45;11.65;;;;;;;9.12;77.29;102235.63;5028271;28;20166;-67
2022/05/02 05:57:55;;;;;;;15.45;12.27;;;;;;;9.17;76.69;102227.72;5025203;28;20017;-67
2022/05/02 06:00:20;;;;;;;;;;;;;;;9.30;76.49;102225.91;5028745;28;20509;-65
2022/05/02 06:03:08;;;;;;;17.35;11.63;;;;;;;9.45;75.98;102227.56;5029479;28;19917;-68
2022/05/02 06:05:43;;;;;;;22.27;12.60;;;;;;;9.55;75.67;102236.25;5020003;28;20038;-68
2022/05/02 06:08:16;;;;;;;16.92;11.75;;;;;;;9.64;75.31;102237.94;5028628;28;20533;-67
2022/05/02 06:10:42;;;;;;;17.08;12.27;;;;;;;9.58;75.08;102229.19;5026419;28;20079;-66
2022/05/02 06:13:08;;;;;;;14.70;11.60;;;;;;;9.64;74.61;102235.31;5036455;28;20400;-72
2022/05/02 06:18:29;;;;;;;16.33;10.77;;;;;;;9.99;73.47;102234.13;5027935;28;20040;-68
2022/05/02 06:21:05;;;;;;;13.82;9.65;;;;;;;10.12;73.00;102229.66;5027189;28;20111;-65
2022/05/02 06:23:45;;;;;;;17.02;11.00;;;;;;;10.21;72.58;102229.53;5026612;28;20029;-66
2022/05/02 06:26:11;;;;;;;17.27;11.68;;;;;;;10.22;72.04;102239.19;5029059;28;20047;-66
2022/05/02 06:28:43;;;;;;;12.85;10.10;;;;;;;10.43;71.94;102237.22;5047726;28;20495;-67
2022/05/02 06:31:19;;;;;;;12.45;10.52;;;;;;;10.48;71.17;102234.59;5046646;28;20401;-67
2022/05/02 06:33:48;;;;;;;17.25;11.65;;;;;;;10.54;70.97;102237.13;5048336;28;20069;-69
2022/05/02 06:36:38;;;;;;;14.73;10.30;;;;;;;10.67;70.52;102235.25;5048946;28;20043;-70
2022/05/02 06:39:22;;;;;;;18.80;11.63;;;;;;;10.55;69.97;102238.88;5033487;28;20025;-72
2022/05/02 06:41:59;;;;;;;16.02;10.27;;;;;;;10.76;69.55;102234.25;5029052;28;20341;-72
2022/05/02 06:44:42;;;;;;;17.63;11.23;;;;;;;10.84;69.50;102237.66;5025392;28;20030;-70
2022/05/02 06:47:42;;;;;;;15.85;11.48;;;;;;;10.87;69.08;102237.63;5016127;28;20021;-68
2022/05/02 06:50:09;;;;;;;17.05;10.82;;;;;;;10.90;68.83;102243.75;5006177;28;20428;-70
2022/05/02 06:52:40;;;;;;;18.42;11.20;;;;;;;11.07;68.12;102241.75;5003711;28;20026;-68
2022/05/02 06:55:22;;;;;;;19.23;11.75;;;;;;;11.21;66.93;102230.16;5011541;28;20037;-69
2022/05/02 06:58:12;;;;;;;15.85;10.38;;;;;;;11.17;66.78;102229.31;4989304;28;20097;-69
2022/05/02 07:00:44;;;;;;;17.13;10.73;;;;;;;11.42;66.23;102233.38;5004043;28;20032;-70
2022/05/02 07:03:13;;;;;;;13.23;10.10;;;;;;;11.57;65.86;102233.13;4990074;28;20830;-69
2022/05/02 07:06:05;;;;;;;15.70;10.35;;;;;;;11.79;65.23;102235.41;4987602;28;20091;-69
2022/05/02 07:08:33;;;;;;;17.50;10.75;;;;;;;11.83;65.42;102234.47;5027639;28;20104;-70
2022/05/02 07:11:03;;;;;;;16.38;11.07;;;;;;;11.91;64.76;102230.81;5025603;28;20118;-69
2022/05/02 07:13:50;;;;;;;14.50;10.15;;;;;;;11.93;64.57;102235.19;5014192;28;20045;-69
2022/05/02 07:16:25;;;;;;;13.38;10.10;;;;;;;12.11;63.90;102230.50;5007283;28;20029;-69
2022/05/02 07:19:21;;;;;;;16.45;10.95;;;;;;;12.11;64.29;102234.03;5017455;28;20044;-67
2022/05/02 07:22:04;;;;;;;14.30;10.27;;;;;;;12.33;63.94;102231.00;5019140;28;20044;-68
2022/05/02 07:24:51;;;;;;;14.73;10.27;;;;;;;12.28;63.55;102232.84;5005832;28;20029;-69
2022/05/02 07:27:28;;;;;;;18.13;10.75;;;;;;;12.35;63.56;102234.50;5008054;28;20039;-69
2022/05/02 07:29:57;;;;;;;15.77;10.30;;;;;;;12.47;62.87;102240.44;5007001;28;20111;-68
2022/05/02 07:32:24;;;;;;;;;;;;;;;12.70;62.00;102232.03;5005010;28;20064;-69
2022/05/02 07:34:49;;;;;;;13.57;9.27;;;;;;;12.82;61.82;102230.91;5005646;28;19917;-68
2022/05/02 07:37:20;;;;;;;13.00;9.93;;;;;;;12.94;60.61;102234.22;5004868;28;20030;-69
2022/05/02 07:39:45;;;;;;;18.13;9.98;;;;;;;12.85;59.35;102230.84;5007736;28;20520;-69
2022/05/02 07:42:12;;;;;;;19.17;9.43;;;;;;;12.87;59.45;102234.34;5006128;28;20057;-67
2022/05/02 07:44:38;;;;;;;14.70;9.02;;;;;;;13.02;58.24;102232.25;5026086;28;20533;-68
2022/05/02 07:47:06;;;;;;;11.95;9.20;;;;;;;13.10;57.86;102229.44;5026032;28;20024;-69
2022/05/02 07:49:33;;;;;;;9.82;7.40;;;;;;;13.27;57.66;102232.56;5024275;28;20623;-69
2022/05/02 07:52:01;;;;;;;14.48;9.90;;;;;;;13.26;55.82;102227.31;5026643;28;20163;-70
2022/05/02 07:54:28;;;;;;;11.13;8.02;;;;;;;13.49;55.79;102237.38;5009134;28;20056;-68
2022/05/02 07:57:01;;;;;;;11.68;8.98;;;;;;;13.55;54.10;102232.88;5003354;28;20077;-68
2022/05/02 07:59:49;;;;;;;11.18;8.15;;;;;;;13.68;54.49;102236.06;5006355;28;20447;-68
2022/05/02 08:02:16;;;;;;;10.95;8.13;;;;;;;13.71;55.42;102238.66;5020579;28;20049;-70
2022/05/02 08:04:42;;;;;;;13.05;8.68;;;;;;;13.84;55.31;102242.72;5024844;28;20037;-68
2022/05/02 08:07:18;;;;;;;13.63;8.90;;;;;;;13.87;53.81;102237.34;5026144;28;20620;-68
2022/05/02 08:10:00;;;;;;;12.80;7.90;;;;;;;13.56;54.33;102235.47;5009934;28;20052;-68
2022/05/02 08:12:40;;;;;;;11.50;8.20;;;;;;;13.61;54.80;102236.22;5005653;28;20049;-69
2022/05/02 08:15:17;;;;;;;14.07;9.07;;;;;;;13.69;54.50;102232.53;5007762;28;20032;-68
2022/05/02 08:18:16;;;;;;;13.02;8.65;;;;;;;13.93;55.17;102238.13;5004727;28;20108;-68
2022/05/02 08:21:00;;;;;;;13.52;7.78;;;;;;;14.14;53.48;102226.94;5007358;28;20025;-69
2022/05/02 08:30:09;;;;;;;11.52;8.48;;;;;;;14.10;51.54;102238.53;4994299;28;20092;-69
2022/05/02 08:32:52;;;;;;;11.43;8.65;;;;;;;14.30;51.31;102241.56;4983914;28;20041;-68
2022/05/02 08:35:50;;;;;;;18.85;8.75;;;;;;;14.07;52.85;102237.75;4985431;28;20021;-69
2022/05/02 08:38:34;;;;;;;14.82;8.70;;;;;;;14.07;52.13;102235.97;4996402;28;20060;-69
2022/05/02 08:41:08;;;;;;;14.00;9.07;;;;;;;14.33;51.68;102236.19;5005279;28;20415;-68
2022/05/02 08:43:45;;;;;;;12.55;7.75;;;;;;;14.23;51.16;102238.19;5005068;28;20030;-68
2022/05/02 08:46:29;;;;;;;11.07;7.53;;;;;;;14.54;50.98;102237.34;5003416;28;20055;-68
2022/05/02 08:49:38;;;;;;;12.00;7.38;;;;;;;14.86;50.89;102232.94;5028098;28;20120;-66
2022/05/02 08:52:24;;;;;;;9.68;7.00;;;;;;;14.30;49.81;102225.66;4990513;28;20041;-68
2022/05/02 08:55:01;;;;;;;13.32;7.95;;;;;;;14.36;50.73;102239.59;4990846;28;20034;-68
2022/05/02 08:57:35;;;;;;;10.10;8.05;;;;;;;14.39;50.76;102234.22;5009392;28;20064;-66
2022/05/02 09:00:04;;;;;;;14.95;8.32;;;;;;;14.55;50.74;102225.84;5007201;28;20488;-71
2022/05/02 09:02:54;;;;;;;12.60;7.50;;;;;;;14.70;49.17;102221.88;4997987;28;20042;-70
2022/05/02 09:05:35;;;;;;;9.18;6.47;;;;;;;15.01;49.16;102226.31;5000174;28;20037;-67
2022/05/02 09:08:37;;;;;;;9.48;7.03;;;;;;;15.10;48.27;102225.16;4999023;28;20030;-67
2022/05/02 09:11:12;;;;;;;12.13;6.68;;;;;;;15.26;48.39;102227.34;4999032;28;20026;-69
2022/05/02 09:14:19;;;;;;;11.60;7.47;;;;;;;15.31;48.84;102225.38;5009653;28;20518;-68
2022/05/02 09:17:23;;;;;;;10.82;6.97;;;;;;;15.48;48.12;102216.88;5007590;28;20513;-68
2022/05/02 09:20:00;;;;;;;9.05;6.75;;;;;;;15.06;47.01;102223.50;5004297;28;20037;-69
2022/05/02 09:23:03;;;;;;;12.23;7.15;;;;;;;14.85;48.50;102225.03;5005433;28;20037;-70
2022/05/02 09:25:59;;;;;;;13.20;7.28;;;;;;;14.91;49.34;102222.19;5007132;28;20032;-69
2022/05/02 09:28:50;;;;;;;8.93;6.97;;;;;;;15.25;48.84;102222.91;5007935;28;20547;-70
2022/05/02 09:31:34;;;;;;;21.08;6.93;;;;;;;15.14;48.80;102210.84;5007510;28;20022;-69
2022/05/02 09:34:02;;;;;;;8.20;6.50;;;;;;;15.11;48.42;102210.94;4998935;28;20133;-69
2022/05/02 09:36:30;;;;;;;12.18;7.07;;;;;;;15.31;47.97;102206.78;5004141;28;20739;-69
2022/05/02 09:39:04;;;;;;;8.40;6.88;;;;;;;15.53;46.01;102195.47;5009308;28;20052;-71
2022/05/02 09:42:07;;;;;;;17.42;6.32;;;;;;;15.31;47.27;102205.91;4989576;28;20021;-69
2022/05/02 09:51:17;;;;;;;12.02;6.55;;;;;;;15.46;46.21;102199.25;5008114;28;20518;-68
2022/05/02 09:53:55;;;;;;;8.57;6.22;;;;;;;15.68;45.64;102202.03;5008239;28;20021;-68
2022/05/02 09:56:38;;;;;;;9.60;6.10;;;;;;;15.61;46.13;102198.75;5007729;28;20124;-68
2022/05/02 09:59:17;;;;;;;7.78;5.40;;;;;;;15.77;46.25;102203.53;5005892;28;20482;-68
2022/05/02 10:01:46;;;;;;;17.15;6.57;;;;;;;16.13;45.67;102199.66;5005095;28;20431;-71
2022/05/02 10:04:14;;;;;;;12.15;6.18;;;;;;;16.44;44.64;102195.03;5006846;28;20515;-71
2022/05/02 10:06:48;;;;;;;12.80;6.15;;;;;;;16.25;45.57;102193.91;5008466;28;20072;-68
2022/05/02 10:09:16;;;;;;;8.77;5.85;;;;;;;16.49;44.94;102195.72;4987767;28;20473;-62
2022/05/02 10:11:50;;;;;;;8.70;5.87;;;;;;;16.57;45.58;102198.97;4994514;28;20072;-71
2022/05/02 10:14:34;;;;;;;14.07;6.63;;;;;;;16.60;44.30;102196.19;4999977;28;20046;-61
2022/05/02 10:17:17;;;;;;;10.75;6.30;;;;;;;16.72;45.11;102199.31;4997377;28;20014;-62
2022/05/02 10:20:13;;;;;;;9.85;6.45;;;;;;;16.92;43.90;102194.06;5009029;28;20132;-62
2022/05/02 10:22:48;;;;;;;11.52;6.00;;;;;;;16.70;43.69;102194.03;4998472;28;20037;-65
2022/05/02 10:25:26;;;;;;;8.25;5.53;;;;;;;16.82;43.48;102187.38;4999882;28;20033;-65
2022/05/02 10:28:14;;;;;;;6.85;6.15;;;;;;;16.90;42.75;102187.06;4995556;28;20598;-69
2022/05/02 10:30:47;;;;;;;7.57;6.07;;;;;;;17.08;42.30;102177.53;4995335;28;20017;-69
2022/05/02 10:33:14;;;;;;;7.88;5.60;;;;;;;17.23;43.17;102180.50;5001280;28;20018;-72
2022/05/02 10:35:44;;;;;;;7.53;5.20;;;;;;;17.30;42.68;102185.50;5000934;28;20029;-69
2022/05/02 10:38:13;;;;;;;8.43;6.47;;;;;;;17.32;40.90;102176.56;5014971;28;20491;-65
2022/05/02 10:40:44;;;;;;;7.40;5.93;;;;;;;17.36;42.30;102179.06;5026593;28;20076;-63
2022/05/02 10:43:17;;;;;;;10.15;5.68;;;;;;;17.52;42.93;102186.44;5028740;28;20052;-62
2022/05/02 10:45:42;;;;;;;8.18;5.65;;;;;;;17.74;43.05;102177.50;5012691;28;20100;-68
2022/05/02 10:48:11;;;;;;;15.48;6.30;;;;;;;17.82;43.22;102183.34;5017910;28;20472;-69
2022/05/02 10:50:37;;;;;;;7.03;5.32;;;;;;;17.74;37.92;102180.16;5029437;28;20029;-66
2022/05/02 10:53:16;;;;;;;7.75;4.97;;;;;;;17.68;37.29;102176.84;5020775;28;20372;-69
2022/05/02 10:56:19;;;;;;;11.13;5.05;;;;;;;17.91;37.79;102180.28;5019966;28;20021;-68
2022/05/02 10:58:46;;;;;;;8.07;5.55;;;;;;;17.45;41.00;102179.63;5009316;28;20551;-69
2022/05/02 11:01:18;;;;;;;12.68;5.97;;;;;;;17.49;40.41;102176.75;5017572;28;20021;-70
2022/05/02 11:03:59;;;;;;;7.05;5.32;;;;;;;17.75;41.11;102165.91;5018154;28;20046;-69
2022/05/02 11:07:01;;;;;;;7.43;4.82;;;;;;;18.00;38.37;102175.50;5019266;28;20499;-69
2022/05/02 11:09:35;;;;;;;7.85;5.93;;;;;;;17.74;40.70;102170.38;5018604;28;20040;-68
2022/05/02 11:12:01;;;;;;;6.35;5.30;;;;;;;18.06;37.77;102168.09;5017172;28;20477;-67
2022/05/02 11:14:44;;;;;;;7.65;5.63;;;;;;;18.23;38.58;102161.16;5016342;28;20018;-68
2022/05/02 11:17:23;;;;;;;7.82;5.72;;;;;;;18.36;38.24;102165.94;5016282;28;20022;-66
2022/05/02 11:23:10;;;;;;;7.05;4.28;;;;;;;17.84;38.47;102162.84;5027514;28;20106;-64
2022/05/02 11:25:39;;;;;;;6.40;4.38;;;;;;;18.31;36.09;102155.47;5023321;28;20033;-66
2022/05/02 11:28:24;;;;;;;9.23;5.63;;;;;;;18.77;36.41;102159.59;5012058;28;20396;-65
2022/05/02 11:30:57;;;;;;;7.05;5.05;;;;;;;19.03;35.27;102149.47;5006053;28;20050;-66
2022/05/02 11:33:38;;;;;;;6.15;5.35;;;;;;;18.97;38.68;102147.97;5027045;28;20032;-64
2022/05/02 11:36:06;;;;;;;8.07;5.78;;;;;;;18.63;38.91;102152.25;5027485;28;20018;-65
2022/05/02 11:38:36;;;;;;;8.32;5.88;;;;;;;18.82;38.54;102147.75;5026437;28;20053;-65
2022/05/02 11:41:13;;;;;;;9.65;6.15;;;;;;;19.34;36.08;102142.63;5028289;28;20108;-64
2022/05/02 11:43:39;;;;;;;5.28;4.78;;;;;;;19.84;34.28;102145.44;5047192;28;20029;-65
2022/05/02 11:46:08;;;;;;;9.65;5.65;;;;;;;18.96;37.49;102134.69;5045355;28;20039;-64
2022/05/02 11:48:39;;;;;;;;;;;;;;;18.86;38.10;102147.59;5047600;28;20021;-63
2022/05/02 11:51:07;;;;;;;9.43;6.10;;;;;;;18.90;38.12;102138.53;5045769;28;19912;-64
2022/05/02 11:53:37;;;;;;;7.57;5.50;;;;;;;19.48;39.23;102135.69;5040213;28;20117;-65
2022/05/02 11:56:04;;;;;;;7.88;5.28;;;;;;;19.45;37.30;102132.22;5025848;28;20029;-66
2022/05/02 11:58:43;;;;;;;9.73;5.35;;;;;;;19.96;39.27;102133.22;5024012;28;20055;-63
2022/05/02 12:01:10;;;;;;;12.32;6.53;;;;;;;20.30;36.54;102133.22;5026973;28;20076;-65
2022/05/02 12:04:02;;;;;;;8.82;6.90;;;;;;;19.82;37.60;102134.81;5026912;28;20096;-65
2022/05/02 12:06:31;;;;;;;9.80;6.93;;;;;;;20.06;38.61;102125.59;5024597;28;20072;-64
2022/05/02 12:08:59;;;;;;;10.02;6.72;;;;;;;20.57;36.22;102138.88;5025476;28;20053;-65